Time,TemperatureF,DewpointF,PressureIn,WindDirection,WindDirectionDegrees,WindSpeedMPH,WindSpeedGustMPH,Humidity,HourlyPrecipIn,Conditions,Clouds,dailyrainin,SolarRadiationWatts/m^2,SoftwareType,DateUTC
2013-06-14 00:22:00,64.0,57.0,-100.00,South,176,10.0,12.0,78,0.00,,,0.00,0.000000,,2013-06-14 05:22:00,
2013-06-14 00:34:00,64.0,57.0,-100.00,South,176,10.0,12.0,78,0.00,,,0.00,0.000000,,2013-06-14 05:34:00,
2013-06-14 00:43:00,64.0,57.0,-100.00,South,176,10.0,12.0,78,0.00,,,0.00,0.000000,,2013-06-14 05:43:00,
2013-06-14 00:52:00,64.0,57.0,-100.00,South,176,10.0,12.0,78,0.00,,,0.00,0.000000,,2013-06-14 05:52:00,
2013-06-14 01:22:00,62.0,57.0,-100.00,SE,125,7.0,13.0,83,0.03,,,0.03,0.000000,,2013-06-14 06:22:00,
2013-06-14 01:33:00,62.0,57.0,-100.00,SE,125,7.0,13.0,83,0.03,,,0.03,0.000000,,2013-06-14 06:33:00,
2013-06-14 01:43:00,62.0,57.0,-100.00,SE,125,7.0,13.0,83,0.03,,,0.03,0.000000,,2013-06-14 06:43:00,
2013-06-14 01:52:00,62.0,57.0,-100.00,SE,125,7.0,13.0,83,0.03,,,0.03,0.000000,,2013-06-14 06:52:00,
2013-06-14 02:22:00,63.0,58.0,-100.00,SE,146,14.0,17.0,84,0.00,,,0.03,0.000000,,2013-06-14 07:22:00,
2013-06-14 02:33:00,63.0,58.0,-100.00,SE,146,14.0,17.0,84,0.00,,,0.03,0.000000,,2013-06-14 07:33:00,
2013-06-14 02:43:00,63.0,58.0,-100.00,SE,146,14.0,17.0,84,0.00,,,0.03,0.000000,,2013-06-14 07:43:00,
2013-06-14 02:53:00,63.0,58.0,-100.00,SE,146,14.0,17.0,84,0.00,,,0.03,0.000000,,2013-06-14 07:53:00,
2013-06-14 03:23:00,64.0,56.0,-100.00,SSE,158,17.0,22.0,76,0.00,,,0.03,0.000000,,2013-06-14 08:23:00,
2013-06-14 03:33:00,64.0,56.0,-100.00,SSE,158,17.0,22.0,76,0.00,,,0.03,0.000000,,2013-06-14 08:33:00,
2013-06-14 03:43:00,64.0,56.0,-100.00,SSE,158,17.0,22.0,76,0.00,,,0.03,0.000000,,2013-06-14 08:43:00,
2013-06-14 03:53:00,64.0,56.0,-100.00,SSE,158,17.0,22.0,76,0.00,,,0.03,0.000000,,2013-06-14 08:53:00,
2013-06-14 04:22:00,64.0,56.0,-100.00,SSE,161,16.0,22.0,74,0.00,,,0.03,0.000000,,2013-06-14 09:22:00,
2013-06-14 04:33:00,64.0,56.0,-100.00,SSE,161,16.0,22.0,74,0.00,,,0.03,0.000000,,2013-06-14 09:33:00,
2013-06-14 04:43:00,64.0,56.0,-100.00,SSE,161,16.0,22.0,74,0.00,,,0.03,0.000000,,2013-06-14 09:43:00,
2013-06-14 04:53:00,64.0,56.0,-100.00,SSE,161,16.0,22.0,74,0.00,,,0.03,0.000000,,2013-06-14 09:53:00,
2013-06-14 05:22:00,63.0,55.0,-100.00,SSE,161,20.0,27.0,75,0.00,,,0.03,0.000000,,2013-06-14 10:22:00,
2013-06-14 05:34:00,63.0,55.0,-100.00,SSE,161,20.0,27.0,75,0.00,,,0.03,0.000000,,2013-06-14 10:34:00,
2013-06-14 05:43:00,63.0,55.0,-100.00,SSE,161,20.0,27.0,75,0.00,,,0.03,0.000000,,2013-06-14 10:43:00,
2013-06-14 05:52:00,63.0,55.0,-100.00,SSE,161,20.0,27.0,75,0.00,,,0.03,0.000000,,2013-06-14 10:52:00,
2013-06-14 06:22:00,62.0,55.0,-100.00,South,170,18.0,24.0,77,0.00,,,0.03,3.000000,,2013-06-14 11:22:00,
2013-06-14 06:32:00,62.0,55.0,-100.00,South,170,18.0,24.0,77,0.00,,,0.03,3.000000,,2013-06-14 11:32:00,
2013-06-14 06:43:00,62.0,55.0,-100.00,South,170,18.0,24.0,77,0.00,,,0.03,3.000000,,2013-06-14 11:43:00,
2013-06-14 06:52:00,62.0,55.0,-100.00,South,170,18.0,24.0,77,0.00,,,0.03,3.000000,,2013-06-14 11:52:00,
2013-06-14 07:22:00,63.0,57.0,-100.00,SSE,161,19.0,24.0,80,0.00,,,0.03,62.000000,,2013-06-14 12:22:00,
2013-06-14 07:32:00,63.0,57.0,-100.00,SSE,161,19.0,24.0,80,0.00,,,0.03,62.000000,,2013-06-14 12:32:00,
2013-06-14 07:43:00,63.0,57.0,-100.00,SSE,161,19.0,24.0,80,0.00,,,0.03,62.000000,,2013-06-14 12:43:00,
2013-06-14 07:52:00,63.0,57.0,-100.00,SSE,161,19.0,24.0,80,0.00,,,0.03,62.000000,,2013-06-14 12:52:00,
2013-06-14 08:22:00,64.0,56.0,-100.00,SSE,162,19.0,25.0,76,0.00,,,0.03,95.000000,,2013-06-14 13:22:00,
2013-06-14 08:33:00,64.0,56.0,-100.00,SSE,162,19.0,25.0,76,0.00,,,0.03,95.000000,,2013-06-14 13:33:00,
2013-06-14 08:43:00,64.0,56.0,-100.00,SSE,162,19.0,25.0,76,0.00,,,0.03,95.000000,,2013-06-14 13:43:00,
2013-06-14 08:52:00,64.0,56.0,-100.00,SSE,162,19.0,25.0,76,0.00,,,0.03,95.000000,,2013-06-14 13:52:00,
2013-06-14 09:22:00,65.0,57.0,-100.00,SSE,154,17.0,26.0,76,0.00,,,0.03,165.000000,,2013-06-14 14:22:00,
2013-06-14 09:34:00,65.0,57.0,-100.00,SSE,154,17.0,26.0,76,0.00,,,0.03,165.000000,,2013-06-14 14:34:00,
2013-06-14 09:43:00,65.0,57.0,-100.00,SSE,154,17.0,26.0,76,0.00,,,0.03,165.000000,,2013-06-14 14:43:00,
2013-06-14 09:52:00,65.0,57.0,-100.00,SSE,154,17.0,26.0,76,0.00,,,0.03,165.000000,,2013-06-14 14:52:00,
2013-06-14 10:23:00,63.0,59.0,-100.00,SE,141,14.0,21.0,86,0.00,,,0.03,141.000000,,2013-06-14 15:23:00,
2013-06-14 10:33:00,63.0,59.0,-100.00,SE,141,14.0,21.0,86,0.00,,,0.03,141.000000,,2013-06-14 15:33:00,
2013-06-14 10:44:00,63.0,59.0,-100.00,SE,141,14.0,21.0,86,0.00,,,0.03,141.000000,,2013-06-14 15:44:00,
2013-06-14 10:52:00,63.0,59.0,-100.00,SE,141,14.0,21.0,86,0.00,,,0.03,141.000000,,2013-06-14 15:52:00,
2013-06-14 11:22:00,65.0,62.0,-100.00,SSE,150,18.0,26.0,89,0.00,,,0.03,148.000000,,2013-06-14 16:22:00,
2013-06-14 11:32:00,65.0,62.0,-100.00,SSE,150,18.0,26.0,89,0.00,,,0.03,148.000000,,2013-06-14 16:32:00,
2013-06-14 11:43:00,65.0,62.0,-100.00,SSE,150,18.0,26.0,89,0.00,,,0.03,148.000000,,2013-06-14 16:43:00,
2013-06-14 11:52:00,65.0,62.0,-100.00,SSE,150,18.0,26.0,89,0.00,,,0.03,148.000000,,2013-06-14 16:52:00,
2013-06-14 12:22:00,70.0,61.0,-100.00,SSE,150,20.0,26.0,72,0.00,,,0.03,681.000000,,2013-06-14 17:22:00,
2013-06-14 12:34:00,70.0,61.0,-100.00,SSE,150,20.0,26.0,72,0.00,,,0.03,681.000000,,2013-06-14 17:34:00,
2013-06-14 12:43:00,70.0,61.0,-100.00,SSE,150,20.0,26.0,72,0.00,,,0.03,681.000000,,2013-06-14 17:43:00,
2013-06-14 12:53:00,70.0,61.0,-100.00,SSE,150,20.0,26.0,72,0.00,,,0.03,681.000000,,2013-06-14 17:53:00,
2013-06-14 13:22:00,73.0,63.0,-100.00,SSE,158,24.0,35.0,71,0.00,,,0.03,969.000000,,2013-06-14 18:22:00,
2013-06-14 13:32:00,73.0,63.0,-100.00,SSE,158,24.0,35.0,71,0.00,,,0.03,969.000000,,2013-06-14 18:32:00,
2013-06-14 13:42:00,73.0,63.0,-100.00,SSE,158,24.0,35.0,71,0.00,,,0.03,969.000000,,2013-06-14 18:42:00,
2013-06-14 13:52:00,73.0,63.0,-100.00,SSE,158,24.0,35.0,71,0.00,,,0.03,969.000000,,2013-06-14 18:52:00,
2013-06-14 14:22:00,77.0,65.0,-100.00,SSE,150,19.0,28.0,67,0.00,,,0.03,1046.000000,,2013-06-14 19:22:00,
2013-06-14 14:32:00,77.0,65.0,-100.00,SSE,150,19.0,28.0,67,0.00,,,0.03,1046.000000,,2013-06-14 19:32:00,
2013-06-14 14:43:00,77.0,65.0,-100.00,SSE,150,19.0,28.0,67,0.00,,,0.03,1046.000000,,2013-06-14 19:43:00,
2013-06-14 14:53:00,77.0,65.0,-100.00,SSE,150,19.0,28.0,67,0.00,,,0.03,1046.000000,,2013-06-14 19:53:00,
2013-06-14 15:22:00,77.0,64.0,-100.00,SSE,155,21.0,29.0,64,0.00,,,0.03,979.000000,,2013-06-14 20:22:00,
2013-06-14 15:33:00,77.0,64.0,-100.00,SSE,155,21.0,29.0,64,0.00,,,0.03,979.000000,,2013-06-14 20:33:00,
2013-06-14 15:43:00,77.0,64.0,-100.00,SSE,155,21.0,29.0,64,0.00,,,0.03,979.000000,,2013-06-14 20:43:00,
2013-06-14 15:53:00,77.0,64.0,-100.00,SSE,155,21.0,29.0,64,0.00,,,0.03,979.000000,,2013-06-14 20:53:00,
2013-06-14 16:22:00,77.0,64.0,-100.00,South,187,19.0,26.0,65,0.00,,,0.03,514.000000,,2013-06-14 21:22:00,
2013-06-14 16:34:00,77.0,64.0,-100.00,South,187,19.0,26.0,65,0.00,,,0.03,514.000000,,2013-06-14 21:34:00,
2013-06-14 16:42:00,77.0,64.0,-100.00,South,187,19.0,26.0,65,0.00,,,0.03,514.000000,,2013-06-14 21:42:00,
2013-06-14 16:52:00,77.0,64.0,-100.00,South,187,19.0,26.0,65,0.00,,,0.03,514.000000,,2013-06-14 21:52:00,
2013-06-14 17:22:00,75.0,65.0,-100.00,SSW,202,11.0,24.0,71,0.00,,,0.03,167.000000,,2013-06-14 22:22:00,
2013-06-14 17:33:00,75.0,65.0,-100.00,SSW,202,11.0,24.0,71,0.00,,,0.03,167.000000,,2013-06-14 22:33:00,
2013-06-14 17:43:00,75.0,65.0,-100.00,SSW,202,11.0,24.0,71,0.00,,,0.03,167.000000,,2013-06-14 22:43:00,
2013-06-14 17:53:00,75.0,65.0,-100.00,SSW,202,11.0,24.0,71,0.00,,,0.03,167.000000,,2013-06-14 22:53:00,
2013-06-14 18:22:00,78.0,67.0,-100.00,South,189,7.0,15.0,69,0.00,,,0.03,232.000000,,2013-06-14 23:22:00,
2013-06-14 18:33:00,78.0,67.0,-100.00,South,189,7.0,15.0,69,0.00,,,0.03,232.000000,,2013-06-14 23:33:00,
2013-06-14 18:43:00,78.0,67.0,-100.00,South,189,7.0,15.0,69,0.00,,,0.03,232.000000,,2013-06-14 23:43:00,
2013-06-14 18:52:00,78.0,67.0,-100.00,South,189,7.0,15.0,69,0.00,,,0.03,232.000000,,2013-06-14 23:52:00,
2013-06-14 19:22:00,80.0,65.0,-100.00,SW,229,9.0,14.0,61,0.00,,,0.03,395.000000,,2013-06-15 00:22:00,
2013-06-14 19:34:00,80.0,65.0,-100.00,SW,229,9.0,14.0,61,0.00,,,0.03,395.000000,,2013-06-15 00:34:00,
2013-06-14 19:43:00,80.0,65.0,-100.00,SW,229,9.0,14.0,61,0.00,,,0.03,395.000000,,2013-06-15 00:43:00,
2013-06-14 19:52:00,80.0,65.0,-100.00,SW,229,9.0,14.0,61,0.00,,,0.03,395.000000,,2013-06-15 00:52:00,
2013-06-14 20:22:00,78.0,68.0,-100.00,WSW,244,7.0,13.0,71,0.00,,,0.03,175.000000,,2013-06-15 01:22:00,
2013-06-14 20:33:00,78.0,68.0,-100.00,WSW,244,7.0,13.0,71,0.00,,,0.03,175.000000,,2013-06-15 01:33:00,
2013-06-14 20:43:00,78.0,68.0,-100.00,WSW,244,7.0,13.0,71,0.00,,,0.03,175.000000,,2013-06-15 01:43:00,
2013-06-14 20:54:00,78.0,68.0,-100.00,WSW,244,7.0,13.0,71,0.00,,,0.03,175.000000,,2013-06-15 01:54:00,
2013-06-14 21:22:00,74.0,67.0,-100.00,West,280,7.0,9.0,79,0.00,,,0.03,51.000000,,2013-06-15 02:22:00,
2013-06-14 21:33:00,74.0,67.0,-100.00,West,280,7.0,9.0,79,0.00,,,0.03,51.000000,,2013-06-15 02:33:00,
2013-06-14 21:43:00,74.0,67.0,-100.00,West,280,7.0,9.0,79,0.00,,,0.03,51.000000,,2013-06-15 02:43:00,
2013-06-14 21:53:00,74.0,67.0,-100.00,West,280,7.0,9.0,79,0.00,,,0.03,51.000000,,2013-06-15 02:53:00,
2013-06-14 22:23:00,71.0,67.0,-100.00,NW,309,12.0,16.0,86,0.00,,,0.03,4.000000,,2013-06-15 03:23:00,
2013-06-14 22:32:00,71.0,67.0,-100.00,NW,309,12.0,16.0,86,0.00,,,0.03,4.000000,,2013-06-15 03:32:00,
2013-06-14 22:43:00,71.0,67.0,-100.00,NW,309,12.0,16.0,86,0.00,,,0.03,4.000000,,2013-06-15 03:43:00,
2013-06-14 22:52:00,71.0,67.0,-100.00,NW,309,12.0,16.0,86,0.00,,,0.03,4.000000,,2013-06-15 03:52:00,
2013-06-14 23:22:00,68.0,64.0,-100.00,NW,315,10.0,12.0,86,0.00,,,0.03,0.000000,,2013-06-15 04:22:00,
2013-06-14 23:34:00,68.0,64.0,-100.00,NW,315,10.0,12.0,86,0.00,,,0.03,0.000000,,2013-06-15 04:34:00,
2013-06-14 23:43:00,68.0,64.0,-100.00,NW,315,10.0,12.0,86,0.00,,,0.03,0.000000,,2013-06-15 04:43:00,
2013-06-14 23:53:00,68.0,64.0,-100.00,NW,315,10.0,12.0,86,0.00,,,0.03,0.000000,,2013-06-15 04:53:00,